sensor_id;sensor_type;location;lat;lon;timestamp;P1;durP1;ratioP1;P2;durP2;ratioP2
62848;SDS011;48941;49.516;8.286;2022-10-16T00:01:32;4.05;;;3.65;;
62848;SDS011;48941;49.516;8.286;2022-10-16T00:04:02;5.05;;;3.50;;
62848;SDS011;48941;49.516;8.286;2022-10-16T00:06:30;3.22;;;2.92;;
62848;SDS011;48941;49.516;8.286;2022-10-16T00:08:58;7.00;;;3.22;;
62848;SDS011;48941;49.516;8.286;2022-10-16T00:11:27;4.30;;;2.95;;
62848;SDS011;48941;49.516;8.286;2022-10-16T00:13:57;5.03;;;3.08;;
62848;SDS011;48941;49.516;8.286;2022-10-16T00:16:25;5.43;;;2.65;;
62848;SDS011;48941;49.516;8.286;2022-10-16T00:18:54;3.40;;;2.60;;
62848;SDS011;48941;49.516;8.286;2022-10-16T00:21:23;3.75;;;2.83;;
62848;SDS011;48941;49.516;8.286;2022-10-16T00:23:53;3.80;;;3.22;;
62848;SDS011;48941;49.516;8.286;2022-10-16T00:26:22;4.35;;;2.80;;
62848;SDS011;48941;49.516;8.286;2022-10-16T00:28:51;4.05;;;3.05;;
62848;SDS011;48941;49.516;8.286;2022-10-16T00:31:20;6.63;;;2.80;;
62848;SDS011;48941;49.516;8.286;2022-10-16T00:33:49;4.07;;;2.72;;
62848;SDS011;48941;49.516;8.286;2022-10-16T00:36:17;3.35;;;2.45;;
62848;SDS011;48941;49.516;8.286;2022-10-16T00:38:49;3.47;;;2.70;;
62848;SDS011;48941;49.516;8.286;2022-10-16T00:41:19;3.15;;;2.25;;
62848;SDS011;48941;49.516;8.286;2022-10-16T00:43:47;3.40;;;2.38;;
62848;SDS011;48941;49.516;8.286;2022-10-16T00:46:17;3.33;;;2.50;;
62848;SDS011;48941;49.516;8.286;2022-10-16T00:48:49;4.35;;;2.50;;
62848;SDS011;48941;49.516;8.286;2022-10-16T00:51:21;2.73;;;2.30;;
62848;SDS011;48941;49.516;8.286;2022-10-16T00:53:54;4.45;;;2.78;;
62848;SDS011;48941;49.516;8.286;2022-10-16T00:56:22;3.72;;;2.53;;
62848;SDS011;48941;49.516;8.286;2022-10-16T00:58:50;6.40;;;2.35;;
62848;SDS011;48941;49.516;8.286;2022-10-16T01:01:18;8.90;;;2.80;;
62848;SDS011;48941;49.516;8.286;2022-10-16T01:03:46;3.53;;;2.63;;
62848;SDS011;48941;49.516;8.286;2022-10-16T01:06:22;4.05;;;2.80;;
62848;SDS011;48941;49.516;8.286;2022-10-16T01:08:57;4.43;;;3.28;;
62848;SDS011;48941;49.516;8.286;2022-10-16T01:11:34;6.05;;;2.70;;
62848;SDS011;48941;49.516;8.286;2022-10-16T01:14:11;4.82;;;2.80;;
62848;SDS011;48941;49.516;8.286;2022-10-16T01:16:44;6.47;;;3.15;;
62848;SDS011;48941;49.516;8.286;2022-10-16T01:19:20;4.22;;;2.88;;
62848;SDS011;48941;49.516;8.286;2022-10-16T01:24:34;7.35;;;2.65;;
62848;SDS011;48941;49.516;8.286;2022-10-16T01:27:08;3.05;;;2.75;;
62848;SDS011;48941;49.516;8.286;2022-10-16T01:29:38;8.85;;;3.30;;
62848;SDS011;48941;49.516;8.286;2022-10-16T01:32:13;3.35;;;3.05;;
62848;SDS011;48941;49.516;8.286;2022-10-16T01:34:47;7.00;;;2.80;;
62848;SDS011;48941;49.516;8.286;2022-10-16T01:37:20;3.20;;;2.67;;
62848;SDS011;48941;49.516;8.286;2022-10-16T01:40:00;4.25;;;3.13;;
62848;SDS011;48941;49.516;8.286;2022-10-16T01:42:35;5.82;;;3.05;;
62848;SDS011;48941;49.516;8.286;2022-10-16T01:45:06;5.80;;;2.80;;
62848;SDS011;48941;49.516;8.286;2022-10-16T01:47:37;6.20;;;2.80;;
62848;SDS011;48941;49.516;8.286;2022-10-16T01:50:07;9.05;;;3.05;;
62848;SDS011;48941;49.516;8.286;2022-10-16T01:52:37;6.38;;;2.90;;
62848;SDS011;48941;49.516;8.286;2022-10-16T01:55:12;3.60;;;2.90;;
62848;SDS011;48941;49.516;8.286;2022-10-16T01:57:46;6.43;;;3.30;;
62848;SDS011;48941;49.516;8.286;2022-10-16T02:00:17;4.38;;;3.20;;
62848;SDS011;48941;49.516;8.286;2022-10-16T02:02:47;4.50;;;3.00;;
62848;SDS011;48941;49.516;8.286;2022-10-16T02:05:20;5.50;;;3.17;;
62848;SDS011;48941;49.516;8.286;2022-10-16T02:07:53;3.97;;;2.72;;
62848;SDS011;48941;49.516;8.286;2022-10-16T02:10:21;5.43;;;3.40;;
62848;SDS011;48941;49.516;8.286;2022-10-16T02:12:53;4.68;;;3.30;;
62848;SDS011;48941;49.516;8.286;2022-10-16T02:15:26;5.05;;;3.25;;
62848;SDS011;48941;49.516;8.286;2022-10-16T02:17:53;7.97;;;3.60;;
62848;SDS011;48941;49.516;8.286;2022-10-16T02:20:22;8.57;;;3.90;;
62848;SDS011;48941;49.516;8.286;2022-10-16T02:25:24;4.80;;;3.22;;
62848;SDS011;48941;49.516;8.286;2022-10-16T02:27:59;4.30;;;3.05;;
62848;SDS011;48941;49.516;8.286;2022-10-16T02:30:32;7.05;;;3.15;;
62848;SDS011;48941;49.516;8.286;2022-10-16T02:33:05;5.10;;;3.13;;
62848;SDS011;48941;49.516;8.286;2022-10-16T02:35:35;4.47;;;3.10;;
62848;SDS011;48941;49.516;8.286;2022-10-16T02:38:04;8.80;;;3.33;;
62848;SDS011;48941;49.516;8.286;2022-10-16T02:40:33;6.10;;;3.53;;
62848;SDS011;48941;49.516;8.286;2022-10-16T02:43:03;3.35;;;3.05;;
62848;SDS011;48941;49.516;8.286;2022-10-16T02:45:31;5.13;;;3.35;;
62848;SDS011;48941;49.516;8.286;2022-10-16T02:47:59;3.90;;;2.80;;
62848;SDS011;48941;49.516;8.286;2022-10-16T02:50:27;6.00;;;3.88;;
62848;SDS011;48941;49.516;8.286;2022-10-16T02:52:54;13.27;;;4.00;;
62848;SDS011;48941;49.516;8.286;2022-10-16T02:55:22;5.25;;;3.75;;
62848;SDS011;48941;49.516;8.286;2022-10-16T02:57:50;6.07;;;3.30;;
62848;SDS011;48941;49.516;8.286;2022-10-16T03:00:20;9.80;;;3.10;;
62848;SDS011;48941;49.516;8.286;2022-10-16T03:02:48;6.03;;;3.45;;
62848;SDS011;48941;49.516;8.286;2022-10-16T03:05:15;7.35;;;2.90;;
62848;SDS011;48941;49.516;8.286;2022-10-16T03:07:43;5.63;;;3.55;;
62848;SDS011;48941;49.516;8.286;2022-10-16T03:10:11;5.20;;;3.20;;
62848;SDS011;48941;49.516;8.286;2022-10-16T03:12:39;5.55;;;3.00;;
62848;SDS011;48941;49.516;8.286;2022-10-16T03:15:07;4.38;;;3.00;;
62848;SDS011;48941;49.516;8.286;2022-10-16T03:17:36;8.35;;;3.80;;
62848;SDS011;48941;49.516;8.286;2022-10-16T03:20:04;5.65;;;4.82;;
62848;SDS011;48941;49.516;8.286;2022-10-16T03:22:33;5.95;;;5.35;;
62848;SDS011;48941;49.516;8.286;2022-10-16T03:25:01;9.90;;;4.78;;
62848;SDS011;48941;49.516;8.286;2022-10-16T03:27:28;6.15;;;4.80;;
62848;SDS011;48941;49.516;8.286;2022-10-16T03:29:56;6.38;;;4.95;;
62848;SDS011;48941;49.516;8.286;2022-10-16T03:32:24;7.72;;;4.25;;
62848;SDS011;48941;49.516;8.286;2022-10-16T03:34:53;4.72;;;3.63;;
62848;SDS011;48941;49.516;8.286;2022-10-16T03:37:22;5.35;;;3.65;;
62848;SDS011;48941;49.516;8.286;2022-10-16T03:39:51;4.80;;;3.40;;
62848;SDS011;48941;49.516;8.286;2022-10-16T03:42:18;6.90;;;3.15;;
62848;SDS011;48941;49.516;8.286;2022-10-16T03:44:46;9.98;;;3.20;;
62848;SDS011;48941;49.516;8.286;2022-10-16T03:47:14;6.72;;;3.20;;
62848;SDS011;48941;49.516;8.286;2022-10-16T03:49:41;7.15;;;3.40;;
62848;SDS011;48941;49.516;8.286;2022-10-16T03:52:10;7.00;;;3.05;;
62848;SDS011;48941;49.516;8.286;2022-10-16T03:54:38;7.28;;;3.45;;
62848;SDS011;48941;49.516;8.286;2022-10-16T03:57:06;5.30;;;2.83;;
62848;SDS011;48941;49.516;8.286;2022-10-16T03:59:34;6.15;;;3.00;;
62848;SDS011;48941;49.516;8.286;2022-10-16T04:02:02;3.78;;;3.10;;
62848;SDS011;48941;49.516;8.286;2022-10-16T04:04:29;4.60;;;3.00;;
62848;SDS011;48941;49.516;8.286;2022-10-16T04:06:57;8.45;;;2.90;;
62848;SDS011;48941;49.516;8.286;2022-10-16T04:09:26;5.43;;;3.30;;
62848;SDS011;48941;49.516;8.286;2022-10-16T04:11:54;3.65;;;3.30;;
62848;SDS011;48941;49.516;8.286;2022-10-16T04:14:21;6.63;;;3.38;;
62848;SDS011;48941;49.516;8.286;2022-10-16T04:16:49;5.80;;;3.42;;
62848;SDS011;48941;49.516;8.286;2022-10-16T04:19:17;6.38;;;3.60;;
62848;SDS011;48941;49.516;8.286;2022-10-16T04:21:45;7.72;;;3.45;;
62848;SDS011;48941;49.516;8.286;2022-10-16T04:24:12;3.90;;;3.28;;
62848;SDS011;48941;49.516;8.286;2022-10-16T04:26:41;5.82;;;3.28;;
62848;SDS011;48941;49.516;8.286;2022-10-16T04:29:09;6.28;;;3.90;;
62848;SDS011;48941;49.516;8.286;2022-10-16T04:31:37;7.95;;;4.00;;
62848;SDS011;48941;49.516;8.286;2022-10-16T04:34:04;9.45;;;3.85;;
62848;SDS011;48941;49.516;8.286;2022-10-16T04:36:32;6.05;;;3.70;;
62848;SDS011;48941;49.516;8.286;2022-10-16T04:39:00;6.88;;;4.00;;
62848;SDS011;48941;49.516;8.286;2022-10-16T04:41:28;4.40;;;3.33;;
62848;SDS011;48941;49.516;8.286;2022-10-16T04:43:57;8.77;;;3.80;;
62848;SDS011;48941;49.516;8.286;2022-10-16T04:46:24;6.30;;;3.70;;
62848;SDS011;48941;49.516;8.286;2022-10-16T04:48:52;5.88;;;3.58;;
62848;SDS011;48941;49.516;8.286;2022-10-16T04:51:20;4.05;;;3.38;;
62848;SDS011;48941;49.516;8.286;2022-10-16T04:53:47;5.28;;;3.30;;
62848;SDS011;48941;49.516;8.286;2022-10-16T04:56:15;7.13;;;3.45;;
62848;SDS011;48941;49.516;8.286;2022-10-16T04:58:43;5.60;;;3.40;;
62848;SDS011;48941;49.516;8.286;2022-10-16T05:01:12;9.98;;;3.47;;
62848;SDS011;48941;49.516;8.286;2022-10-16T05:03:40;6.95;;;3.47;;
62848;SDS011;48941;49.516;8.286;2022-10-16T05:06:07;7.00;;;2.97;;
62848;SDS011;48941;49.516;8.286;2022-10-16T05:08:35;6.32;;;3.05;;
62848;SDS011;48941;49.516;8.286;2022-10-16T05:11:03;6.20;;;3.17;;
62848;SDS011;48941;49.516;8.286;2022-10-16T05:13:31;9.10;;;3.50;;
62848;SDS011;48941;49.516;8.286;2022-10-16T05:15:58;8.38;;;3.22;;
62848;SDS011;48941;49.516;8.286;2022-10-16T05:18:28;5.20;;;2.97;;
62848;SDS011;48941;49.516;8.286;2022-10-16T05:20:55;5.80;;;3.08;;
62848;SDS011;48941;49.516;8.286;2022-10-16T05:23:23;3.40;;;2.83;;
62848;SDS011;48941;49.516;8.286;2022-10-16T05:25:54;9.25;;;3.70;;
62848;SDS011;48941;49.516;8.286;2022-10-16T05:28:24;4.07;;;3.10;;
62848;SDS011;48941;49.516;8.286;2022-10-16T05:30:52;5.43;;;3.20;;
62848;SDS011;48941;49.516;8.286;2022-10-16T05:33:20;6.97;;;3.08;;
62848;SDS011;48941;49.516;8.286;2022-10-16T05:35:52;4.47;;;2.90;;
62848;SDS011;48941;49.516;8.286;2022-10-16T05:38:19;8.05;;;3.20;;
62848;SDS011;48941;49.516;8.286;2022-10-16T05:40:50;3.33;;;3.03;;
62848;SDS011;48941;49.516;8.286;2022-10-16T05:43:19;8.25;;;3.25;;
62848;SDS011;48941;49.516;8.286;2022-10-16T05:45:53;3.45;;;3.15;;
62848;SDS011;48941;49.516;8.286;2022-10-16T05:48:21;4.20;;;3.05;;
62848;SDS011;48941;49.516;8.286;2022-10-16T05:50:57;3.40;;;3.10;;
62848;SDS011;48941;49.516;8.286;2022-10-16T05:53:26;5.45;;;3.25;;
62848;SDS011;48941;49.516;8.286;2022-10-16T05:55:55;4.63;;;3.17;;
62848;SDS011;48941;49.516;8.286;2022-10-16T05:58:23;11.50;;;3.33;;
62848;SDS011;48941;49.516;8.286;2022-10-16T06:00:52;4.88;;;3.83;;
62848;SDS011;48941;49.516;8.286;2022-10-16T06:03:21;8.75;;;4.60;;
62848;SDS011;48941;49.516;8.286;2022-10-16T06:05:49;7.35;;;4.28;;
62848;SDS011;48941;49.516;8.286;2022-10-16T06:08:19;11.27;;;4.07;;
62848;SDS011;48941;49.516;8.286;2022-10-16T06:10:49;10.13;;;3.80;;
62848;SDS011;48941;49.516;8.286;2022-10-16T06:13:27;4.93;;;3.35;;
62848;SDS011;48941;49.516;8.286;2022-10-16T06:15:56;7.88;;;3.65;;
62848;SDS011;48941;49.516;8.286;2022-10-16T06:18:25;6.00;;;3.70;;
62848;SDS011;48941;49.516;8.286;2022-10-16T06:20:54;8.50;;;4.43;;
62848;SDS011;48941;49.516;8.286;2022-10-16T06:23:24;12.38;;;5.00;;
62848;SDS011;48941;49.516;8.286;2022-10-16T06:25:52;8.85;;;5.50;;
62848;SDS011;48941;49.516;8.286;2022-10-16T06:28:20;6.45;;;4.00;;
62848;SDS011;48941;49.516;8.286;2022-10-16T06:30:47;7.60;;;4.20;;
62848;SDS011;48941;49.516;8.286;2022-10-16T06:33:15;9.20;;;3.90;;
62848;SDS011;48941;49.516;8.286;2022-10-16T06:35:43;7.07;;;3.70;;
62848;SDS011;48941;49.516;8.286;2022-10-16T06:38:10;7.20;;;3.55;;
62848;SDS011;48941;49.516;8.286;2022-10-16T06:40:39;8.55;;;3.83;;
62848;SDS011;48941;49.516;8.286;2022-10-16T06:43:07;5.90;;;3.60;;
62848;SDS011;48941;49.516;8.286;2022-10-16T06:45:35;8.43;;;3.95;;
62848;SDS011;48941;49.516;8.286;2022-10-16T06:48:02;5.32;;;3.72;;
62848;SDS011;48941;49.516;8.286;2022-10-16T06:50:30;6.85;;;4.25;;
62848;SDS011;48941;49.516;8.286;2022-10-16T06:52:58;11.30;;;4.25;;
62848;SDS011;48941;49.516;8.286;2022-10-16T06:55:26;7.50;;;4.68;;
62848;SDS011;48941;49.516;8.286;2022-10-16T06:57:55;4.15;;;3.70;;
62848;SDS011;48941;49.516;8.286;2022-10-16T07:00:23;5.47;;;3.80;;
62848;SDS011;48941;49.516;8.286;2022-10-16T07:02:50;8.07;;;3.80;;
62848;SDS011;48941;49.516;8.286;2022-10-16T07:05:18;9.32;;;3.53;;
62848;SDS011;48941;49.516;8.286;2022-10-16T07:07:46;7.05;;;3.60;;
62848;SDS011;48941;49.516;8.286;2022-10-16T07:10:14;5.03;;;3.78;;
62848;SDS011;48941;49.516;8.286;2022-10-16T07:12:41;8.60;;;3.83;;
62848;SDS011;48941;49.516;8.286;2022-10-16T07:15:12;6.68;;;3.60;;
62848;SDS011;48941;49.516;8.286;2022-10-16T07:17:40;9.82;;;3.53;;
62848;SDS011;48941;49.516;8.286;2022-10-16T07:20:08;6.78;;;4.15;;
62848;SDS011;48941;49.516;8.286;2022-10-16T07:22:36;5.72;;;3.67;;
62848;SDS011;48941;49.516;8.286;2022-10-16T07:25:04;7.82;;;3.95;;
62848;SDS011;48941;49.516;8.286;2022-10-16T07:27:33;5.50;;;4.30;;
62848;SDS011;48941;49.516;8.286;2022-10-16T07:30:01;7.47;;;4.00;;
62848;SDS011;48941;49.516;8.286;2022-10-16T07:32:35;7.38;;;4.25;;
62848;SDS011;48941;49.516;8.286;2022-10-16T07:35:03;8.77;;;4.18;;
62848;SDS011;48941;49.516;8.286;2022-10-16T07:37:31;7.35;;;4.03;;
62848;SDS011;48941;49.516;8.286;2022-10-16T07:39:59;11.13;;;4.30;;
62848;SDS011;48941;49.516;8.286;2022-10-16T07:42:27;5.80;;;4.13;;
62848;SDS011;48941;49.516;8.286;2022-10-16T07:44:55;9.30;;;4.60;;
62848;SDS011;48941;49.516;8.286;2022-10-16T07:47:23;9.20;;;5.50;;
62848;SDS011;48941;49.516;8.286;2022-10-16T07:49:52;8.00;;;5.10;;
62848;SDS011;48941;49.516;8.286;2022-10-16T07:52:20;13.07;;;4.97;;
62848;SDS011;48941;49.516;8.286;2022-10-16T07:54:48;10.25;;;4.60;;
62848;SDS011;48941;49.516;8.286;2022-10-16T07:57:15;10.45;;;5.10;;
62848;SDS011;48941;49.516;8.286;2022-10-16T07:59:45;9.38;;;4.55;;
62848;SDS011;48941;49.516;8.286;2022-10-16T08:02:13;10.50;;;4.60;;
62848;SDS011;48941;49.516;8.286;2022-10-16T08:04:41;7.30;;;4.78;;
62848;SDS011;48941;49.516;8.286;2022-10-16T08:07:10;9.80;;;4.80;;
62848;SDS011;48941;49.516;8.286;2022-10-16T08:09:37;12.43;;;5.47;;
62848;SDS011;48941;49.516;8.286;2022-10-16T08:12:05;8.00;;;5.75;;
62848;SDS011;48941;49.516;8.286;2022-10-16T08:14:33;10.30;;;6.25;;
62848;SDS011;48941;49.516;8.286;2022-10-16T08:17:01;18.13;;;7.95;;
62848;SDS011;48941;49.516;8.286;2022-10-16T08:19:30;13.15;;;7.10;;
62848;SDS011;48941;49.516;8.286;2022-10-16T08:22:00;10.15;;;6.20;;
62848;SDS011;48941;49.516;8.286;2022-10-16T08:24:29;7.90;;;5.18;;
62848;SDS011;48941;49.516;8.286;2022-10-16T08:26:58;9.85;;;5.88;;
62848;SDS011;48941;49.516;8.286;2022-10-16T08:29:26;10.45;;;5.43;;
62848;SDS011;48941;49.516;8.286;2022-10-16T08:31:54;10.20;;;5.20;;
62848;SDS011;48941;49.516;8.286;2022-10-16T08:34:21;40.08;;;5.75;;
62848;SDS011;48941;49.516;8.286;2022-10-16T08:36:49;9.90;;;4.40;;
62848;SDS011;48941;49.516;8.286;2022-10-16T08:39:20;10.60;;;5.30;;
62848;SDS011;48941;49.516;8.286;2022-10-16T08:41:54;12.35;;;4.95;;
62848;SDS011;48941;49.516;8.286;2022-10-16T08:44:37;8.38;;;4.57;;
62848;SDS011;48941;49.516;8.286;2022-10-16T08:47:26;6.88;;;4.90;;
62848;SDS011;48941;49.516;8.286;2022-10-16T08:50:08;10.13;;;4.80;;
62848;SDS011;48941;49.516;8.286;2022-10-16T08:52:39;8.48;;;4.60;;
62848;SDS011;48941;49.516;8.286;2022-10-16T08:55:10;9.15;;;5.28;;
62848;SDS011;48941;49.516;8.286;2022-10-16T08:57:51;7.95;;;5.13;;
62848;SDS011;48941;49.516;8.286;2022-10-16T09:00:19;9.18;;;5.25;;
62848;SDS011;48941;49.516;8.286;2022-10-16T09:02:49;10.23;;;6.18;;
62848;SDS011;48941;49.516;8.286;2022-10-16T09:05:28;11.07;;;6.43;;
62848;SDS011;48941;49.516;8.286;2022-10-16T09:08:13;9.15;;;6.30;;
62848;SDS011;48941;49.516;8.286;2022-10-16T09:10:52;9.88;;;6.38;;
62848;SDS011;48941;49.516;8.286;2022-10-16T09:13:28;11.07;;;6.88;;
62848;SDS011;48941;49.516;8.286;2022-10-16T09:16:01;8.32;;;6.57;;
62848;SDS011;48941;49.516;8.286;2022-10-16T09:18:43;9.60;;;6.68;;
62848;SDS011;48941;49.516;8.286;2022-10-16T09:21:16;10.27;;;6.15;;
62848;SDS011;48941;49.516;8.286;2022-10-16T09:23:48;7.47;;;5.75;;
62848;SDS011;48941;49.516;8.286;2022-10-16T09:26:17;8.60;;;5.50;;
62848;SDS011;48941;49.516;8.286;2022-10-16T09:28:51;9.10;;;5.50;;
62848;SDS011;48941;49.516;8.286;2022-10-16T09:31:20;11.43;;;4.80;;
62848;SDS011;48941;49.516;8.286;2022-10-16T09:33:51;7.57;;;5.05;;
62848;SDS011;48941;49.516;8.286;2022-10-16T09:39:00;9.02;;;4.60;;
62848;SDS011;48941;49.516;8.286;2022-10-16T09:41:30;6.50;;;4.53;;
62848;SDS011;48941;49.516;8.286;2022-10-16T09:44:02;6.65;;;4.05;;
62848;SDS011;48941;49.516;8.286;2022-10-16T09:46:33;7.20;;;4.20;;
62848;SDS011;48941;49.516;8.286;2022-10-16T09:49:02;7.45;;;4.85;;
62848;SDS011;48941;49.516;8.286;2022-10-16T09:51:32;8.60;;;4.47;;
62848;SDS011;48941;49.516;8.286;2022-10-16T09:54:02;11.52;;;4.18;;
62848;SDS011;48941;49.516;8.286;2022-10-16T09:56:41;7.50;;;4.65;;
62848;SDS011;48941;49.516;8.286;2022-10-16T09:59:14;12.32;;;4.20;;
62848;SDS011;48941;49.516;8.286;2022-10-16T10:01:45;9.32;;;4.20;;
62848;SDS011;48941;49.516;8.286;2022-10-16T10:04:16;5.35;;;3.70;;
62848;SDS011;48941;49.516;8.286;2022-10-16T10:06:44;6.38;;;3.47;;
62848;SDS011;48941;49.516;8.286;2022-10-16T10:09:15;5.25;;;3.70;;
62848;SDS011;48941;49.516;8.286;2022-10-16T10:11:51;4.53;;;3.72;;
62848;SDS011;48941;49.516;8.286;2022-10-16T10:14:23;10.65;;;3.88;;
62848;SDS011;48941;49.516;8.286;2022-10-16T10:17:02;7.28;;;3.70;;
62848;SDS011;48941;49.516;8.286;2022-10-16T10:19:38;8.43;;;3.95;;
62848;SDS011;48941;49.516;8.286;2022-10-16T10:22:13;3.80;;;3.28;;
62848;SDS011;48941;49.516;8.286;2022-10-16T10:24:44;3.63;;;3.28;;
62848;SDS011;48941;49.516;8.286;2022-10-16T10:27:21;7.95;;;3.50;;
62848;SDS011;48941;49.516;8.286;2022-10-16T10:29:58;6.28;;;3.30;;
62848;SDS011;48941;49.516;8.286;2022-10-16T10:32:32;3.58;;;3.13;;
62848;SDS011;48941;49.516;8.286;2022-10-16T10:35:13;7.05;;;3.78;;
62848;SDS011;48941;49.516;8.286;2022-10-16T10:37:51;7.85;;;3.20;;
62848;SDS011;48941;49.516;8.286;2022-10-16T10:40:34;5.82;;;3.00;;
62848;SDS011;48941;49.516;8.286;2022-10-16T10:43:18;6.20;;;3.47;;
62848;SDS011;48941;49.516;8.286;2022-10-16T10:46:01;4.43;;;3.10;;
62848;SDS011;48941;49.516;8.286;2022-10-16T10:48:39;5.75;;;3.13;;
62848;SDS011;48941;49.516;8.286;2022-10-16T10:51:20;9.90;;;3.30;;
62848;SDS011;48941;49.516;8.286;2022-10-16T10:53:54;5.65;;;3.17;;
62848;SDS011;48941;49.516;8.286;2022-10-16T10:56:38;6.05;;;2.72;;
62848;SDS011;48941;49.516;8.286;2022-10-16T10:59:15;3.83;;;2.70;;
62848;SDS011;48941;49.516;8.286;2022-10-16T11:02:15;6.13;;;2.75;;
62848;SDS011;48941;49.516;8.286;2022-10-16T11:07:51;4.20;;;2.95;;
62848;SDS011;48941;49.516;8.286;2022-10-16T11:10:22;6.18;;;2.80;;
62848;SDS011;48941;49.516;8.286;2022-10-16T11:12:55;7.63;;;2.70;;
62848;SDS011;48941;49.516;8.286;2022-10-16T11:15:29;8.77;;;3.92;;
62848;SDS011;48941;49.516;8.286;2022-10-16T11:18:03;5.57;;;2.80;;
62848;SDS011;48941;49.516;8.286;2022-10-16T11:20:34;7.35;;;3.10;;
62848;SDS011;48941;49.516;8.286;2022-10-16T11:23:10;4.43;;;2.63;;
62848;SDS011;48941;49.516;8.286;2022-10-16T11:25:43;5.65;;;2.85;;
62848;SDS011;48941;49.516;8.286;2022-10-16T11:28:13;6.20;;;2.75;;
62848;SDS011;48941;49.516;8.286;2022-10-16T11:30:44;3.15;;;2.83;;
62848;SDS011;48941;49.516;8.286;2022-10-16T11:33:22;4.10;;;3.13;;
62848;SDS011;48941;49.516;8.286;2022-10-16T11:36:00;3.20;;;2.55;;
62848;SDS011;48941;49.516;8.286;2022-10-16T11:38:34;6.53;;;2.60;;
62848;SDS011;48941;49.516;8.286;2022-10-16T11:41:09;9.63;;;3.50;;
62848;SDS011;48941;49.516;8.286;2022-10-16T11:43:43;3.03;;;2.58;;
62848;SDS011;48941;49.516;8.286;2022-10-16T11:46:20;4.40;;;2.60;;
62848;SDS011;48941;49.516;8.286;2022-10-16T11:48:54;9.03;;;2.63;;
62848;SDS011;48941;49.516;8.286;2022-10-16T11:51:30;6.22;;;3.00;;
62848;SDS011;48941;49.516;8.286;2022-10-16T11:54:02;5.35;;;2.65;;
62848;SDS011;48941;49.516;8.286;2022-10-16T11:56:36;4.75;;;2.55;;
62848;SDS011;48941;49.516;8.286;2022-10-16T11:59:08;2.97;;;2.45;;
62848;SDS011;48941;49.516;8.286;2022-10-16T12:01:46;6.47;;;2.70;;
62848;SDS011;48941;49.516;8.286;2022-10-16T12:04:21;6.30;;;2.55;;
62848;SDS011;48941;49.516;8.286;2022-10-16T12:06:55;7.53;;;3.05;;
62848;SDS011;48941;49.516;8.286;2022-10-16T12:09:29;6.45;;;2.70;;
62848;SDS011;48941;49.516;8.286;2022-10-16T12:11:58;8.50;;;3.50;;
62848;SDS011;48941;49.516;8.286;2022-10-16T12:17:34;5.40;;;3.00;;
62848;SDS011;48941;49.516;8.286;2022-10-16T12:20:19;2.77;;;2.57;;
62848;SDS011;48941;49.516;8.286;2022-10-16T12:25:26;5.72;;;3.47;;
62848;SDS011;48941;49.516;8.286;2022-10-16T12:28:02;4.68;;;2.45;;
62848;SDS011;48941;49.516;8.286;2022-10-16T12:30:33;4.32;;;2.80;;
62848;SDS011;48941;49.516;8.286;2022-10-16T12:33:03;2.72;;;2.50;;
62848;SDS011;48941;49.516;8.286;2022-10-16T12:35:34;4.38;;;2.70;;
62848;SDS011;48941;49.516;8.286;2022-10-16T12:38:15;7.57;;;2.80;;
62848;SDS011;48941;49.516;8.286;2022-10-16T12:40:45;5.22;;;3.00;;
62848;SDS011;48941;49.516;8.286;2022-10-16T12:46:22;4.55;;;2.80;;
62848;SDS011;48941;49.516;8.286;2022-10-16T12:48:52;3.50;;;3.15;;
62848;SDS011;48941;49.516;8.286;2022-10-16T12:51:35;5.93;;;2.67;;
62848;SDS011;48941;49.516;8.286;2022-10-16T12:54:04;6.85;;;2.83;;
62848;SDS011;48941;49.516;8.286;2022-10-16T12:56:41;8.75;;;2.60;;
62848;SDS011;48941;49.516;8.286;2022-10-16T12:59:24;3.75;;;2.58;;
62848;SDS011;48941;49.516;8.286;2022-10-16T13:02:05;6.72;;;3.13;;
62848;SDS011;48941;49.516;8.286;2022-10-16T13:05:09;4.85;;;2.53;;
62848;SDS011;48941;49.516;8.286;2022-10-16T13:07:55;6.55;;;3.10;;
62848;SDS011;48941;49.516;8.286;2022-10-16T13:10:34;5.45;;;3.10;;
62848;SDS011;48941;49.516;8.286;2022-10-16T13:13:13;4.05;;;2.97;;
62848;SDS011;48941;49.516;8.286;2022-10-16T13:15:59;5.65;;;2.80;;
62848;SDS011;48941;49.516;8.286;2022-10-16T13:18:38;5.13;;;3.28;;
62848;SDS011;48941;49.516;8.286;2022-10-16T13:21:20;6.03;;;2.90;;
62848;SDS011;48941;49.516;8.286;2022-10-16T13:23:59;9.23;;;3.17;;
62848;SDS011;48941;49.516;8.286;2022-10-16T13:26:39;5.95;;;3.20;;
62848;SDS011;48941;49.516;8.286;2022-10-16T13:29:13;4.28;;;3.20;;
62848;SDS011;48941;49.516;8.286;2022-10-16T13:31:42;8.23;;;2.97;;
62848;SDS011;48941;49.516;8.286;2022-10-16T13:34:12;6.40;;;2.92;;
62848;SDS011;48941;49.516;8.286;2022-10-16T13:39:14;6.80;;;3.00;;
62848;SDS011;48941;49.516;8.286;2022-10-16T13:41:57;7.07;;;3.10;;
62848;SDS011;48941;49.516;8.286;2022-10-16T13:44:35;5.38;;;2.90;;
62848;SDS011;48941;49.516;8.286;2022-10-16T13:47:10;3.28;;;2.97;;
62848;SDS011;48941;49.516;8.286;2022-10-16T13:49:43;6.68;;;2.88;;
62848;SDS011;48941;49.516;8.286;2022-10-16T13:52:18;6.60;;;3.22;;
62848;SDS011;48941;49.516;8.286;2022-10-16T13:54:49;4.22;;;3.00;;
62848;SDS011;48941;49.516;8.286;2022-10-16T13:57:22;7.75;;;3.33;;
62848;SDS011;48941;49.516;8.286;2022-10-16T13:59:53;9.05;;;3.33;;
62848;SDS011;48941;49.516;8.286;2022-10-16T14:02:22;5.95;;;3.00;;
62848;SDS011;48941;49.516;8.286;2022-10-16T14:04:54;6.10;;;3.10;;
62848;SDS011;48941;49.516;8.286;2022-10-16T14:07:25;3.20;;;2.90;;
62848;SDS011;48941;49.516;8.286;2022-10-16T14:09:56;6.10;;;2.97;;
62848;SDS011;48941;49.516;8.286;2022-10-16T14:12:29;9.55;;;3.08;;
62848;SDS011;48941;49.516;8.286;2022-10-16T14:14:58;5.78;;;3.00;;
62848;SDS011;48941;49.516;8.286;2022-10-16T14:17:27;8.32;;;3.40;;
62848;SDS011;48941;49.516;8.286;2022-10-16T14:19:57;6.85;;;3.35;;
62848;SDS011;48941;49.516;8.286;2022-10-16T14:22:33;6.05;;;3.80;;
62848;SDS011;48941;49.516;8.286;2022-10-16T14:25:13;4.65;;;3.60;;
62848;SDS011;48941;49.516;8.286;2022-10-16T14:27:56;8.10;;;5.57;;
62848;SDS011;48941;49.516;8.286;2022-10-16T14:30:25;41.33;;;30.40;;
62848;SDS011;48941;49.516;8.286;2022-10-16T14:32:55;42.47;;;31.15;;
62848;SDS011;48941;49.516;8.286;2022-10-16T14:35:24;50.67;;;35.25;;
62848;SDS011;48941;49.516;8.286;2022-10-16T14:37:55;62.72;;;43.75;;
62848;SDS011;48941;49.516;8.286;2022-10-16T14:40:26;21.95;;;13.02;;
62848;SDS011;48941;49.516;8.286;2022-10-16T14:42:56;6.78;;;4.55;;
62848;SDS011;48941;49.516;8.286;2022-10-16T14:45:25;12.70;;;6.45;;
62848;SDS011;48941;49.516;8.286;2022-10-16T14:47:56;4.70;;;3.75;;
62848;SDS011;48941;49.516;8.286;2022-10-16T14:50:25;8.15;;;3.50;;
62848;SDS011;48941;49.516;8.286;2022-10-16T14:52:53;7.32;;;3.83;;
62848;SDS011;48941;49.516;8.286;2022-10-16T14:55:22;5.35;;;3.42;;
62848;SDS011;48941;49.516;8.286;2022-10-16T14:57:56;5.57;;;3.50;;
62848;SDS011;48941;49.516;8.286;2022-10-16T15:00:26;6.38;;;3.03;;
62848;SDS011;48941;49.516;8.286;2022-10-16T15:02:54;6.97;;;3.10;;
62848;SDS011;48941;49.516;8.286;2022-10-16T15:05:23;6.72;;;3.30;;
62848;SDS011;48941;49.516;8.286;2022-10-16T15:07:53;4.78;;;3.40;;
62848;SDS011;48941;49.516;8.286;2022-10-16T15:10:22;8.23;;;3.15;;
62848;SDS011;48941;49.516;8.286;2022-10-16T15:12:51;3.90;;;3.00;;
62848;SDS011;48941;49.516;8.286;2022-10-16T15:15:28;13.85;;;3.60;;
62848;SDS011;48941;49.516;8.286;2022-10-16T15:20:30;5.32;;;3.47;;
62848;SDS011;48941;49.516;8.286;2022-10-16T15:23:00;6.35;;;3.05;;
62848;SDS011;48941;49.516;8.286;2022-10-16T15:25:34;4.75;;;2.83;;
62848;SDS011;48941;49.516;8.286;2022-10-16T15:28:04;6.05;;;2.95;;
62848;SDS011;48941;49.516;8.286;2022-10-16T15:30:34;5.70;;;3.08;;
62848;SDS011;48941;49.516;8.286;2022-10-16T15:33:03;4.25;;;3.20;;
62848;SDS011;48941;49.516;8.286;2022-10-16T15:35:31;7.82;;;3.25;;